Time;durP1;ratioP1;P1;durP2;ratioP2;P2;SDS_P1;SDS_P2;PMS_P1;PMS_P2;Temp;Humidity;BMP_temperature;BMP_pressure;BME280_temperature;BME280_humidity;BME280_pressure;Samples;Min_cycle;Max_cycle;Signal;HPM_P1;HPM_P2
2021/12/06 00:01:57;;;;;;;31.30;17.80;;;6.70;98.80;;;6.61;71.85;93993.84;5069768;28;20490;-59
2021/12/06 00:04:26;;;;;;;32.90;16.83;;;6.70;98.80;;;6.61;71.13;93988.63;5069824;28;21002;-58
2021/12/06 00:06:59;;;;;;;45.47;22.53;;;6.70;98.80;;;6.63;70.75;93981.47;5069467;28;20474;-58
2021/12/06 00:09:28;;;;;;;44.63;22.30;;;6.70;98.70;;;6.64;71.05;93994.41;5068023;28;20470;-57
2021/12/06 00:11:58;;;;;;;39.43;21.00;;;6.70;98.50;;;6.65;70.94;93990.03;5068965;28;21010;-57
2021/12/06 00:14:28;;;;;;;35.87;19.93;;;6.70;98.50;;;6.66;70.45;93991.66;5067498;28;20462;-58
2021/12/06 00:16:55;;;;;;;41.07;22.57;;;6.70;98.40;;;6.66;71.18;93978.59;5069484;28;21082;-58
2021/12/06 00:19:23;;;;;;;44.87;23.07;;;6.70;98.60;;;6.64;71.46;93983.13;5070291;28;20454;-62
2021/12/06 00:21:51;;;;;;;41.90;21.87;;;6.70;98.50;;;6.64;70.68;93977.91;5069288;28;20486;-58
2021/12/06 00:24:18;;;;;;;41.30;22.10;;;6.70;98.40;;;6.64;70.56;93967.44;5067353;28;20466;-59
2021/12/06 00:26:45;;;;;;;38.10;22.20;;;6.70;98.30;;;6.63;70.57;93978.84;5068760;28;20486;-58
2021/12/06 00:29:14;;;;;;;41.70;22.50;;;6.70;98.30;;;6.63;70.53;94007.59;5069727;28;20451;-58
2021/12/06 00:31:41;;;;;;;38.67;21.40;;;6.70;98.30;;;6.62;70.75;94011.19;5069756;28;20462;-58
2021/12/06 00:34:10;;;;;;;40.73;21.67;;;6.70;98.30;;;6.60;71.08;94015.72;5068956;28;20470;-58
2021/12/06 00:36:39;;;;;;;36.87;20.87;;;6.70;98.30;;;6.58;70.97;94034.16;5069929;28;20466;-58
2021/12/06 00:39:10;;;;;;;33.53;18.63;;;6.70;98.20;;;6.54;71.40;94021.50;5069638;28;20455;-58
2021/12/06 00:41:38;;;;;;;35.90;19.13;;;6.60;98.20;;;6.53;71.27;94010.22;5069758;28;20548;-59
2021/12/06 00:44:07;;;;;;;36.90;19.40;;;6.60;98.60;;;6.54;71.20;94008.44;5069692;28;20462;-59
2021/12/06 00:46:37;;;;;;;39.47;19.60;;;6.60;98.70;;;6.57;71.71;94022.06;5069774;28;20482;-60
2021/12/06 00:49:04;;;;;;;31.40;18.83;;;6.70;98.80;;;6.59;71.16;94022.72;5069552;28;20489;-58
2021/12/06 00:51:32;;;;;;;35.33;20.67;;;6.70;98.80;;;6.61;71.40;94023.41;5069141;28;20882;-58
2021/12/06 00:53:59;;;;;;;35.30;19.70;;;6.70;98.80;;;6.64;70.92;94011.88;5068762;28;21001;-59
2021/12/06 00:56:26;;;;;;;40.73;20.53;;;6.70;98.80;;;6.67;71.15;94019.44;5067298;28;21101;-58
2021/12/06 00:58:53;;;;;;;26.27;16.33;;;6.70;98.60;;;6.67;71.27;94010.78;5068626;28;20459;-58
2021/12/06 01:01:21;;;;;;;30.60;17.23;;;6.70;98.50;;;6.67;71.08;94003.75;5069047;28;20494;-58
2021/12/06 01:03:49;;;;;;;28.17;15.83;;;6.80;98.70;;;6.70;71.09;93990.41;5067149;28;20455;-58
2021/12/06 01:06:17;;;;;;;29.07;16.53;;;6.80;98.60;;;6.73;71.55;94003.22;5068349;28;20485;-58
2021/12/06 01:08:44;;;;;;;33.20;17.17;;;6.80;98.80;;;6.74;71.37;94010.09;5069487;28;20551;-57
2021/12/06 01:11:11;;;;;;;28.57;17.10;;;6.80;98.60;;;6.76;70.69;94016.00;5066357;28;20467;-57
2021/12/06 01:13:39;;;;;;;29.17;18.20;;;6.90;98.60;;;6.78;70.54;94016.69;5069357;28;20925;-58
2021/12/06 01:16:07;;;;;;;29.80;15.97;;;6.90;98.50;;;6.79;70.61;94018.34;5068462;28;20473;-59
2021/12/06 01:18:35;;;;;;;28.37;17.00;;;6.90;98.60;;;6.80;70.80;94009.53;5068992;28;20458;-58
2021/12/06 01:21:12;;;;;;;27.80;16.30;;;6.90;98.50;;;6.80;70.92;94004.31;5067647;28;20490;-58
2021/12/06 01:23:51;;;;;;;37.80;19.07;;;6.90;98.50;;;6.82;70.80;93989.31;5069399;28;20447;-58
2021/12/06 01:26:36;;;;;;;33.07;18.47;;;6.90;98.60;;;6.86;70.30;93996.88;5068136;28;20475;-56
2021/12/06 01:29:25;;;;;;;47.07;21.17;;;6.90;98.30;;;6.87;70.38;93988.91;5065940;28;20473;-57
2021/12/06 01:31:59;;;;;;;37.13;20.10;;;6.90;98.20;;;6.87;70.38;93977.63;5065230;28;20475;-58
2021/12/06 01:39:57;;;;;;;34.50;18.73;;;6.90;98.00;;;6.85;70.66;93975.16;5068222;28;20429;-59
2021/12/06 01:42:25;;;;;;;33.83;20.90;;;7.00;98.00;;;6.84;70.13;93970.06;5069400;28;20498;-59
2021/12/06 01:44:54;;;;;;;36.70;20.00;;;6.90;98.00;;;6.81;70.12;93982.44;5069000;28;20455;-57
2021/12/06 01:47:23;;;;;;;35.23;19.37;;;6.90;98.00;;;6.81;70.32;93961.50;5068423;28;20474;-57
2021/12/06 01:49:52;;;;;;;35.63;19.03;;;6.90;98.10;;;6.81;70.27;93974.59;5068545;28;20458;-59
2021/12/06 01:52:22;;;;;;;36.20;19.33;;;6.90;98.00;;;6.81;70.11;93964.13;5067585;28;20466;-57
2021/12/06 01:54:49;;;;;;;34.33;18.70;;;6.90;98.00;;;6.80;70.42;93967.72;5062855;28;20462;-58
2021/12/06 01:57:17;;;;;;;35.80;19.53;;;6.90;98.10;;;6.80;70.79;93961.66;5067579;28;21000;-59
2021/12/06 01:59:45;;;;;;;33.50;18.90;;;6.90;98.10;;;6.78;70.71;93960.97;5068825;28;20458;-57
2021/12/06 02:02:12;;;;;;;40.10;21.00;;;6.80;98.00;;;6.77;70.40;93957.56;5071625;28;20863;-59
2021/12/06 02:04:40;;;;;;;35.17;19.93;;;6.90;98.10;;;6.77;70.71;93946.25;5066937;28;20563;-57
2021/12/06 02:07:08;;;;;;;28.50;17.13;;;6.80;98.00;;;6.78;70.16;93953.13;5067982;28;20470;-59
2021/12/06 02:09:37;;;;;;;36.53;19.80;;;6.80;98.00;;;6.76;70.71;93955.91;5068476;28;20454;-58
2021/12/06 02:12:05;;;;;;;36.10;18.57;;;6.80;98.00;;;6.76;70.42;93948.06;5067730;28;20486;-57
2021/12/06 02:14:34;;;;;;;34.80;18.63;;;6.80;98.20;;;6.76;70.66;93932.38;5068513;28;20458;-59
2021/12/06 02:17:11;;;;;;;34.83;19.10;;;6.80;98.20;;;6.79;70.64;93939.13;5068686;28;20493;-57
2021/12/06 02:19:42;;;;;;;35.53;19.20;;;6.80;98.10;;;6.78;69.96;93945.31;5069000;28;20458;-59
2021/12/06 02:22:12;;;;;;;32.67;18.50;;;6.90;98.00;;;6.72;70.09;93951.09;5068057;28;20851;-58
2021/12/06 02:24:39;;;;;;;31.80;18.50;;;6.80;98.00;;;6.68;70.19;93944.47;5068136;28;20443;-57
2021/12/06 02:27:07;;;;;;;28.33;17.70;;;6.70;98.10;;;6.66;71.14;93944.63;5068452;28;20475;-57
2021/12/06 02:29:35;;;;;;;31.87;18.60;;;6.70;98.30;;;6.66;70.45;93952.44;5068540;28;20455;-58
2021/12/06 02:32:09;;;;;;;33.43;17.70;;;6.70;98.40;;;6.64;70.93;93951.78;5061830;28;20467;-57
2021/12/06 02:34:36;;;;;;;37.43;18.63;;;6.70;98.40;;;6.62;71.08;93940.66;5068206;28;20504;-59
2021/12/06 02:37:04;;;;;;;32.03;16.00;;;6.70;98.80;;;6.63;71.01;93950.13;5068026;28;20478;-56
2021/12/06 02:39:33;;;;;;;29.40;18.57;;;6.70;98.80;;;6.64;71.44;93946.56;5068133;28;20458;-58
2021/12/06 02:42:00;;;;;;;33.60;15.73;;;6.70;98.80;;;6.66;70.97;93939.38;5069478;28;20579;-58
2021/12/06 02:44:28;;;;;;;34.57;17.60;;;6.70;98.80;;;6.67;71.24;93935.81;5071538;28;20488;-57
2021/12/06 02:46:56;;;;;;;29.27;17.80;;;6.70;98.80;;;6.69;71.48;93931.28;5072146;28;21037;-59
2021/12/06 02:49:23;;;;;;;31.60;17.87;;;6.80;98.80;;;6.73;71.32;93932.66;5071942;28;20971;-59
2021/12/06 02:51:51;;;;;;;28.80;17.33;;;6.80;98.80;;;6.74;71.42;93936.94;5071941;28;20482;-57
2021/12/06 02:54:20;;;;;;;36.17;18.70;;;6.80;98.80;;;6.76;71.07;93932.38;5072754;28;20455;-58
2021/12/06 02:56:55;;;;;;;31.50;15.93;;;6.80;98.80;;;6.78;71.11;93943.50;5071763;28;20847;-56
2021/12/06 02:59:25;;;;;;;32.33;15.80;;;6.80;98.80;;;6.81;71.31;93948.44;5072282;28;20466;-59
2021/12/06 03:01:54;;;;;;;26.90;14.30;;;6.90;98.90;;;6.85;71.35;93948.16;5070611;28;20598;-58
2021/12/06 03:04:21;;;;;;;26.37;15.43;;;6.90;98.90;;;6.86;70.91;93929.72;5072223;28;20504;-57
2021/12/06 03:06:53;;;;;;;29.47;15.10;;;6.90;98.90;;;6.90;71.61;93935.53;5071136;28;20528;-58
2021/12/06 03:09:22;;;;;;;33.33;17.70;;;7.00;98.90;;;6.94;71.41;93934.25;5071605;28;20451;-58
2021/12/06 03:11:53;;;;;;;35.77;17.23;;;7.00;98.90;;;6.97;70.85;93933.97;5070508;28;21017;-59
2021/12/06 03:14:22;;;;;;;24.80;14.93;;;7.00;98.90;;;7.03;71.50;93940.44;5071238;28;20450;-58
2021/12/06 03:16:49;;;;;;;30.10;15.40;;;7.10;99.00;;;7.06;71.80;93940.97;5071022;28;20475;-58
2021/12/06 03:19:17;;;;;;;26.80;15.30;;;7.10;99.00;;;7.10;71.46;93925.84;5071681;28;20450;-58
2021/12/06 03:21:44;;;;;;;33.90;16.43;;;7.10;99.00;;;7.10;71.70;93921.44;5068149;28;21015;-58
2021/12/06 03:24:11;;;;;;;26.07;15.00;;;7.20;99.20;;;7.09;71.05;93925.00;5071732;28;20443;-58
2021/12/06 03:26:39;;;;;;;27.50;15.30;;;7.20;99.00;;;7.09;71.79;93927.63;5070848;28;20791;-59
2021/12/06 03:29:07;;;;;;;25.90;15.03;;;7.10;99.00;;;7.11;71.66;93928.31;5070741;28;20450;-60
2021/12/06 03:31:35;;;;;;;25.80;15.23;;;7.20;99.10;;;7.12;71.74;93940.41;5071942;28;20471;-59
2021/12/06 03:34:02;;;;;;;25.83;15.00;;;7.20;99.10;;;7.16;71.47;93933.94;5071046;28;20454;-58
2021/12/06 03:36:31;;;;;;;26.83;16.53;;;7.20;99.10;;;7.18;71.21;93921.53;5071141;28;20478;-59
2021/12/06 03:38:59;;;;;;;30.37;17.40;;;7.20;99.10;;;7.21;71.39;93909.16;5069441;28;20444;-59
2021/12/06 03:41:28;;;;;;;26.27;16.40;;;7.20;99.40;;;7.21;71.20;93914.41;5070628;28;20496;-60
2021/12/06 03:43:55;;;;;;;38.53;20.73;;;7.30;98.90;;;7.16;70.84;93920.88;5071607;28;20451;-60
2021/12/06 03:46:24;;;;;;;34.37;19.20;;;7.20;98.80;;;7.13;71.05;93926.38;5071267;28;20477;-58
2021/12/06 03:48:52;;;;;;;34.67;18.47;;;7.20;99.00;;;7.12;71.13;93922.09;5068979;28;20454;-58
2021/12/06 03:51:19;;;;;;;31.13;18.60;;;7.20;99.00;;;7.14;71.58;93928.03;5070396;28;20470;-57
2021/12/06 03:53:46;;;;;;;33.13;18.27;;;7.20;99.00;;;7.15;71.04;93932.28;5069431;28;20463;-59
2021/12/06 03:56:14;;;;;;;36.30;18.50;;;7.20;99.00;;;7.16;71.30;93918.25;5069115;28;20463;-57
2021/12/06 03:58:43;;;;;;;34.33;18.70;;;7.20;99.00;;;7.17;71.29;93922.53;5070192;28;20439;-59
2021/12/06 04:01:11;;;;;;;34.07;17.10;;;7.20;99.10;;;7.20;71.68;93916.16;5067763;28;20458;-57
2021/12/06 04:03:41;;;;;;;30.37;18.03;;;7.20;99.00;;;7.21;71.58;93914.41;5067977;28;20487;-58
2021/12/06 04:06:09;;;;;;;39.20;17.67;;;7.30;99.10;;;7.21;71.70;93919.63;5066782;28;20856;-57
2021/12/06 04:08:36;;;;;;;28.23;17.00;;;7.30;99.10;;;7.20;71.74;93915.34;5068478;28;20537;-59
2021/12/06 04:11:03;;;;;;;33.33;18.50;;;7.30;99.10;;;7.18;71.71;93921.53;5070460;28;20470;-59
2021/12/06 04:13:31;;;;;;;28.67;17.70;;;7.30;99.10;;;7.18;71.99;93932.00;5070465;28;20455;-59
2021/12/06 04:15:58;;;;;;;28.60;16.60;;;7.20;99.00;;;7.17;72.09;93922.53;5067077;28;20941;-60
2021/12/06 04:18:25;;;;;;;27.97;16.63;;;7.20;99.10;;;7.16;71.57;93931.31;5070030;28;20463;-59
2021/12/06 04:20:54;;;;;;;30.20;16.70;;;7.20;99.30;;;7.17;71.65;93926.91;5068896;28;20466;-59
2021/12/06 04:23:22;;;;;;;30.37;15.97;;;7.20;99.40;;;7.17;72.32;93932.97;5068738;28;21010;-59
2021/12/06 04:25:49;;;;;;;24.10;14.83;;;7.30;99.40;;;7.19;71.60;93938.06;5070097;28;20475;-60
2021/12/06 04:28:19;;;;;;;27.73;16.60;;;7.30;99.50;;;7.22;71.59;93934.31;5069693;28;20447;-60
2021/12/06 04:30:49;;;;;;;27.23;14.27;;;7.30;99.40;;;7.23;71.69;93934.19;5068151;28;20486;-59
2021/12/06 04:33:16;;;;;;;28.87;16.70;;;7.30;99.60;;;7.25;71.68;93913.13;5070452;28;21026;-58
2021/12/06 04:35:44;;;;;;;28.57;17.63;;;7.30;99.60;;;7.26;72.33;93920.81;5067565;28;20479;-57
2021/12/06 04:38:12;;;;;;;26.63;16.80;;;7.30;99.80;;;7.29;72.30;93915.31;5069268;28;20447;-57
2021/12/06 04:40:40;;;;;;;26.90;15.30;;;7.40;99.60;;;7.32;71.73;93919.44;5069148;28;20478;-57
2021/12/06 04:43:07;;;;;;;27.43;17.43;;;7.40;99.90;;;7.33;71.55;93929.75;5069572;28;20490;-56
2021/12/06 04:45:35;;;;;;;30.73;16.43;;;7.40;99.60;;;7.33;72.32;93911.44;5068829;28;20463;-57
2021/12/06 04:48:02;;;;;;;25.57;16.13;;;7.40;99.60;;;7.34;71.60;93914.88;5069801;28;20446;-58
2021/12/06 04:50:32;;;;;;;27.63;16.47;;;7.40;99.50;;;7.34;72.31;93913.09;5068657;28;20926;-56
2021/12/06 04:53:05;;;;;;;33.07;17.07;;;7.40;99.60;;;7.36;71.91;93920.81;5070390;28;20459;-58
2021/12/06 04:55:37;;;;;;;22.83;15.40;;;7.40;99.50;;;7.34;71.57;93917.50;5068858;28;20464;-55
2021/12/06 04:58:05;;;;;;;26.40;16.10;;;7.40;99.50;;;7.32;72.12;93912.41;5069651;28;20451;-58
2021/12/06 05:00:37;;;;;;;25.77;16.50;;;7.40;99.60;;;7.32;71.89;93914.19;5068521;28;20482;-58
2021/12/06 05:03:05;;;;;;;29.83;16.60;;;7.40;99.70;;;7.32;72.74;93920.25;5068626;28;20516;-58
2021/12/06 05:05:35;;;;;;;31.50;17.67;;;7.40;99.90;;;7.38;72.55;93933.75;5066476;28;21066;-57
2021/12/06 05:08:05;;;;;;;33.80;18.63;;;7.40;99.80;;;7.38;72.84;93924.09;5069121;28;20450;-60
2021/12/06 05:10:33;;;;;;;29.20;17.77;;;7.50;99.90;;;7.40;72.08;93911.69;5070113;28;20467;-58
2021/12/06 05:13:01;;;;;;;28.93;17.93;;;7.40;99.90;;;7.43;72.64;93921.03;5067068;28;20977;-58
2021/12/06 05:15:28;;;;;;;31.60;17.40;;;7.50;99.90;;;7.43;71.95;93915.81;5066534;28;20471;-57
2021/12/06 05:17:55;;;;;;;34.33;18.43;;;7.50;99.70;;;7.42;72.27;93920.22;5069349;28;20980;-58
2021/12/06 05:20:23;;;;;;;32.90;18.27;;;7.50;99.90;;;7.41;71.84;93926.41;5068258;28;20458;-55
2021/12/06 05:22:50;;;;;;;40.00;19.53;;;7.50;99.80;;;7.39;71.73;93932.75;5068419;28;20489;-57
2021/12/06 05:25:18;;;;;;;29.63;18.30;;;7.40;99.50;;;7.33;71.65;93948.06;5066933;28;20459;-59
2021/12/06 05:27:47;;;;;;;41.87;21.43;;;7.40;99.50;;;7.28;72.41;93941.59;5068975;28;20449;-59
2021/12/06 05:30:15;;;;;;;33.33;20.53;;;7.40;99.50;;;7.25;72.10;93932.28;5069456;28;20447;-57
2021/12/06 05:32:43;;;;;;;36.27;20.40;;;7.30;99.60;;;7.24;72.64;93932.41;5068607;28;20942;-60
2021/12/06 05:35:10;;;;;;;37.00;21.40;;;7.30;99.60;;;7.21;72.16;93917.81;5069011;28;20459;-60
2021/12/06 05:37:41;;;;;;;41.27;20.27;;;7.30;99.60;;;7.20;72.11;93931.84;5068666;28;20457;-59
2021/12/06 05:40:12;;;;;;;42.30;23.00;;;7.20;99.80;;;7.19;72.05;93940.69;5068382;28;20447;-57
2021/12/06 05:42:39;;;;;;;39.37;23.10;;;7.30;99.70;;;7.16;72.49;93948.81;5066344;28;20483;-59
2021/12/06 05:45:10;;;;;;;36.53;22.07;;;7.20;99.60;;;7.15;72.00;93955.81;5067749;28;20454;-59
2021/12/06 05:47:37;;;;;;;40.87;23.10;;;7.20;99.80;;;7.15;72.21;93953.19;5066732;28;20459;-57
2021/12/06 05:50:06;;;;;;;52.20;22.77;;;7.20;99.80;;;7.18;72.09;93936.41;5069102;28;20504;-57
2021/12/06 05:52:33;;;;;;;38.70;22.60;;;7.20;99.70;;;7.18;72.28;93933.78;5068743;28;20458;-60
2021/12/06 05:55:00;;;;;;;49.47;25.00;;;7.20;99.60;;;7.15;71.79;93921.81;5069313;28;20451;-60
2021/12/06 05:57:27;;;;;;;35.33;21.93;;;7.20;99.60;;;7.15;72.16;93918.38;5069446;28;20474;-58
2021/12/06 05:59:55;;;;;;;36.03;20.77;;;7.20;99.70;;;7.15;72.48;93928.84;5069223;28;20454;-61
2021/12/06 06:02:23;;;;;;;39.00;23.87;;;7.20;99.70;;;7.16;72.51;93935.75;5067573;28;20871;-59
2021/12/06 06:04:51;;;;;;;43.27;23.00;;;7.20;99.70;;;7.19;72.64;93940.69;5067835;28;20459;-58
2021/12/06 06:07:18;;;;;;;41.33;22.50;;;7.20;99.80;;;7.20;72.76;93941.50;5068526;28;20471;-59
2021/12/06 06:09:45;;;;;;;35.07;20.47;;;7.30;99.90;;;7.22;72.73;93944.78;5066855;28;20651;-58
2021/12/06 06:12:13;;;;;;;31.20;18.47;;;7.30;99.90;;;7.24;72.44;93959.38;5068133;28;21002;-59
2021/12/06 06:14:40;;;;;;;31.90;18.23;;;7.30;99.90;;;7.25;72.68;93965.44;5068589;28;20975;-58
2021/12/06 06:17:11;;;;;;;37.80;18.00;;;7.30;99.90;;;7.25;72.82;93963.66;5068788;28;20886;-58
2021/12/06 06:19:42;;;;;;;28.67;17.37;;;7.30;99.90;;;7.27;72.36;93966.13;5072720;28;20470;-59
2021/12/06 06:22:09;;;;;;;26.33;15.50;;;7.30;99.90;;;7.32;72.67;93956.06;5072937;28;20474;-59
2021/12/06 06:24:36;;;;;;;30.00;15.50;;;7.40;99.90;;;7.40;72.93;93957.97;5072555;28;20450;-58
2021/12/06 06:27:04;;;;;;;22.87;15.60;;;7.50;99.90;;;7.47;72.14;93952.00;5072312;28;20489;-59
2021/12/06 06:29:32;;;;;;;23.90;14.47;;;7.50;99.90;;;7.61;72.99;93947.28;5072742;28;20454;-58
2021/12/06 06:31:59;;;;;;;23.43;15.50;;;7.60;99.90;;;7.77;72.35;93944.84;5071478;28;20563;-59
2021/12/06 06:34:26;;;;;;;26.90;16.27;;;7.80;99.90;;;7.92;71.94;93939.09;5072123;28;20451;-59
2021/12/06 06:36:55;;;;;;;31.93;16.97;;;8.00;99.90;;;8.02;71.65;93948.56;5072738;28;20901;-58
2021/12/06 06:39:22;;;;;;;28.40;17.23;;;8.10;99.70;;;8.08;71.37;93968.09;5072018;28;20811;-57
2021/12/06 06:41:50;;;;;;;23.67;14.43;;;8.10;99.50;;;8.11;71.19;93973.06;5072716;28;20840;-57
2021/12/06 06:44:17;;;;;;;23.30;14.20;;;8.20;99.50;;;8.10;71.55;93971.38;5072204;28;20490;-56
2021/12/06 06:46:45;;;;;;;24.10;14.07;;;8.20;99.50;;;8.11;71.08;93967.81;5072803;28;20474;-58
2021/12/06 06:49:12;;;;;;;16.77;11.90;;;8.10;99.40;;;8.12;71.39;93963.38;5069951;28;20447;-59
2021/12/06 06:51:40;;;;;;;21.43;13.03;;;8.20;99.50;;;8.14;71.99;93964.91;5071812;28;20475;-58
2021/12/06 06:54:09;;;;;;;16.37;11.60;;;8.20;99.50;;;8.18;71.27;93989.00;5072336;28;20454;-59
2021/12/06 06:56:36;;;;;;;20.30;11.33;;;8.20;99.50;;;8.18;71.45;93995.06;5071755;28;21033;-59
2021/12/06 06:59:04;;;;;;;18.60;12.33;;;8.20;99.20;;;8.14;71.20;93972.75;5071914;28;20978;-59
2021/12/06 07:01:31;;;;;;;17.73;11.40;;;8.20;99.20;;;8.14;71.57;93980.63;5070880;28;20830;-59
2021/12/06 07:03:58;;;;;;;16.20;11.63;;;8.20;99.50;;;8.15;71.46;93974.41;5071149;28;21334;-58
2021/12/06 07:06:27;;;;;;;18.80;12.87;;;8.20;99.50;;;8.16;71.27;93981.28;5071160;28;21033;-58
2021/12/06 07:08:55;;;;;;;17.30;12.17;;;8.20;99.50;;;8.22;72.03;93972.03;5071797;28;20455;-58
2021/12/06 07:11:24;;;;;;;22.13;12.43;;;8.30;99.50;;;8.39;71.65;93986.13;5072018;28;20581;-58
2021/12/06 07:13:51;;;;;;;17.17;11.17;;;8.40;99.60;;;8.64;71.58;93979.34;5070014;28;20475;-61
2021/12/06 07:16:19;;;;;;;17.27;11.57;;;8.70;99.70;;;8.79;70.65;93974.41;5070430;28;20466;-59
2021/12/06 07:18:46;;;;;;;15.97;10.70;;;8.80;98.90;;;8.86;70.06;93969.34;5069777;28;20459;-58
2021/12/06 07:21:14;;;;;;;14.30;9.90;;;9.00;98.70;;;9.01;70.38;93956.53;5072063;28;20471;-58
2021/12/06 07:23:41;;;;;;;15.37;10.50;;;9.00;98.60;;;9.15;70.13;93956.81;5071547;28;20572;-60
2021/12/06 07:26:09;;;;;;;14.57;10.33;;;9.20;98.60;;;9.42;69.27;93962.03;5071353;28;20704;-57
2021/12/06 07:28:38;;;;;;;12.83;9.20;;;9.40;98.20;;;9.77;68.83;93962.88;5070469;28;20447;-60
2021/12/06 07:31:06;;;;;;;14.93;9.53;;;9.80;98.10;;;10.18;68.15;93965.69;5069066;28;20466;-61
2021/12/06 07:33:33;;;;;;;12.97;10.10;;;10.20;97.10;;;10.40;66.61;93967.72;5071026;28;20455;-60
2021/12/06 07:36:01;;;;;;;13.33;9.00;;;10.50;95.90;;;10.34;66.42;93957.84;5071395;28;20498;-61
2021/12/06 07:38:28;;;;;;;11.40;8.50;;;10.50;95.40;;;10.20;66.26;93971.59;5071259;28;20536;-59
2021/12/06 07:40:57;;;;;;;14.87;9.27;;;10.40;95.10;;;10.01;66.25;93954.28;5071839;28;20993;-62
2021/12/06 07:43:24;;;;;;;15.60;9.40;;;10.20;95.00;;;9.84;66.79;93977.84;5071130;28;20498;-60
2021/12/06 07:45:53;;;;;;;13.20;8.83;;;10.00;95.20;;;9.71;66.79;93974.00;5071624;28;20485;-59
2021/12/06 07:48:20;;;;;;;10.37;7.87;;;9.90;95.80;;;9.56;67.27;93971.97;5071156;28;20838;-59
2021/12/06 07:50:48;;;;;;;12.40;9.00;;;9.70;96.00;;;9.43;67.54;93984.69;5069949;28;20478;-61
2021/12/06 07:53:15;;;;;;;11.73;6.97;;;9.60;96.20;;;9.28;67.54;93982.63;5067941;28;20454;-59
2021/12/06 07:55:43;;;;;;;12.30;8.27;;;9.40;96.20;;;9.17;67.87;93982.06;5068172;28;20462;-59
2021/12/06 07:58:10;;;;;;;13.90;9.20;;;9.30;96.40;;;9.04;68.04;93962.28;5069200;28;20770;-60
2021/12/06 08:00:39;;;;;;;14.33;8.47;;;9.10;96.50;;;8.94;68.05;93951.91;5069007;28;20471;-60
2021/12/06 08:03:08;;;;;;;12.00;8.70;;;9.00;96.80;;;8.88;68.59;93965.63;5068850;28;20494;-60
2021/12/06 08:05:37;;;;;;;11.30;8.00;;;9.00;97.20;;;8.82;69.01;93960.97;5067396;28;20475;-58
2021/12/06 08:08:11;;;;;;;11.87;9.07;;;8.90;97.20;;;8.76;69.17;93949.28;5068549;28;20515;-60
2021/12/06 08:10:40;;;;;;;14.77;8.60;;;8.80;97.40;;;8.76;69.41;93949.28;5066686;28;20468;-60
2021/12/06 08:13:07;;;;;;;14.47;9.50;;;8.80;97.60;;;8.75;69.13;93944.19;5066131;28;20966;-59
2021/12/06 08:15:35;;;;;;;18.10;10.30;;;8.80;97.80;;;8.76;70.12;93956.34;5069009;28;20824;-59
2021/12/06 08:18:02;;;;;;;17.13;10.00;;;8.80;98.20;;;8.76;69.57;93982.56;5066486;28;20483;-59
2021/12/06 08:20:31;;;;;;;13.57;9.20;;;8.80;97.90;;;8.70;69.87;93962.19;5062943;28;20472;-59
2021/12/06 08:22:59;;;;;;;14.63;8.70;;;8.80;98.00;;;8.61;70.08;93959.50;5064777;28;20455;-59
2021/12/06 08:25:26;;;;;;;13.50;8.63;;;8.70;98.00;;;8.52;70.23;93949.94;5070148;28;20470;-61
2021/12/06 08:27:53;;;;;;;15.30;9.50;;;8.60;98.20;;;8.49;70.64;93954.63;5070590;28;20443;-59
2021/12/06 08:30:24;;;;;;;12.33;8.90;;;8.50;98.60;;;8.48;70.44;93969.53;5070353;28;20489;-60
2021/12/06 08:32:52;;;;;;;13.37;8.73;;;8.50;98.70;;;8.48;71.05;93974.78;5069349;28;21033;-60
2021/12/06 08:35:19;;;;;;;15.40;9.43;;;8.50;98.90;;;8.47;71.19;93962.63;5069871;28;20520;-61
2021/12/06 08:37:48;;;;;;;13.43;9.37;;;8.50;99.00;;;8.49;70.94;93960.72;5067665;28;20529;-60
2021/12/06 08:40:18;;;;;;;16.20;10.50;;;8.50;99.10;;;8.53;71.37;93959.41;5068884;28;20640;-62
2021/12/06 08:42:46;;;;;;;18.27;10.97;;;8.50;99.40;;;8.63;71.96;93950.66;5066523;28;20553;-61
2021/12/06 08:45:13;;;;;;;16.80;10.27;;;8.60;99.60;;;8.79;71.51;93945.56;5066784;28;20487;-60
2021/12/06 08:47:40;;;;;;;16.43;10.20;;;8.80;99.70;;;9.03;71.29;93944.09;5069146;28;20459;-61
2021/12/06 08:50:10;;;;;;;14.43;10.20;;;9.00;99.80;;;9.22;70.57;93956.19;5069638;28;20447;-58
2021/12/06 08:52:37;;;;;;;16.23;10.07;;;9.10;99.20;;;9.36;69.83;93962.66;5067175;28;20454;-59
2021/12/06 08:55:07;;;;;;;15.07;9.13;;;9.30;98.70;;;9.42;69.39;93960.25;5068452;28;20455;-60
2021/12/06 08:57:35;;;;;;;13.23;9.10;;;9.40;98.40;;;9.45;69.30;93954.69;5067243;28;20447;-61
2021/12/06 09:00:02;;;;;;;12.10;8.87;;;9.40;98.30;;;9.46;69.23;93948.44;5068992;28;20451;-60
2021/12/06 09:02:30;;;;;;;12.33;9.07;;;9.50;98.40;;;9.52;69.26;93947.00;5066630;28;20471;-58
2021/12/06 09:04:58;;;;;;;11.00;8.43;;;9.50;97.90;;;9.58;68.90;93946.38;5066507;28;21113;-60
2021/12/06 09:07:26;;;;;;;19.00;10.20;;;9.60;97.80;;;9.65;68.88;93936.91;5067056;28;21104;-61
2021/12/06 09:09:56;;;;;;;18.17;9.57;;;9.70;98.00;;;9.70;69.19;93944.31;5068485;28;20886;-60
2021/12/06 09:12:26;;;;;;;11.97;7.97;;;9.70;98.00;;;9.76;68.62;93948.09;5067001;28;20477;-60
2021/12/06 09:14:54;;;;;;;14.70;7.90;;;9.70;97.50;;;9.76;68.11;93937.59;5066063;28;20463;-61
2021/12/06 09:17:21;;;;;;;13.57;7.97;;;9.70;97.30;;;9.74;68.51;93939.56;5069704;28;20471;-59
2021/12/06 09:19:49;;;;;;;9.37;7.70;;;9.80;97.30;;;9.75;68.62;93938.59;5070062;28;20534;-60
2021/12/06 09:22:16;;;;;;;10.03;7.33;;;9.80;97.40;;;9.76;68.36;93938.44;5068219;28;20474;-60
2021/12/06 09:24:44;;;;;;;12.07;8.50;;;9.70;97.30;;;9.81;68.67;93925.66;5069643;28;20494;-62
2021/12/06 09:27:11;;;;;;;12.10;8.27;;;9.80;97.60;;;9.88;68.57;93912.69;5069099;28;21012;-61
2021/12/06 09:29:40;;;;;;;16.40;8.60;;;9.90;97.60;;;9.95;68.46;93926.84;5068603;28;20463;-60
2021/12/06 09:32:11;;;;;;;14.10;8.83;;;9.90;97.60;;;10.04;68.16;93931.13;5065459;28;21014;-59
2021/12/06 09:34:41;;;;;;;12.47;8.60;;;10.00;97.10;;;10.13;68.43;93929.38;5071307;28;20459;-60
2021/12/06 09:37:08;;;;;;;12.27;8.80;;;10.10;97.20;;;10.17;67.73;93935.94;5068421;28;20475;-58
2021/12/06 09:39:36;;;;;;;16.07;8.43;;;10.10;96.50;;;10.21;67.60;93925.94;5068993;28;20455;-62
2021/12/06 09:42:04;;;;;;;12.23;8.60;;;10.20;96.40;;;10.24;67.30;93909.84;5066053;28;20598;-61
2021/12/06 09:44:31;;;;;;;11.73;8.73;;;10.20;96.20;;;10.22;66.48;93919.69;5068996;28;20601;-60
2021/12/06 09:47:00;;;;;;;13.53;8.50;;;10.20;95.50;;;10.22;66.75;93917.06;5068811;28;20479;-60
2021/12/06 09:49:28;;;;;;;17.93;10.03;;;10.20;95.70;;;10.20;66.62;93911.16;5068497;28;20447;-60
2021/12/06 09:51:58;;;;;;;35.97;11.80;;;10.20;95.60;;;10.17;66.99;93908.84;5068466;28;20471;-60
2021/12/06 09:54:31;;;;;;;19.20;11.20;;;10.20;95.90;;;10.18;67.29;93900.78;5068855;28;20482;-61
2021/12/06 09:56:59;;;;;;;18.17;12.47;;;10.10;96.00;;;10.23;67.20;93884.53;5067832;28;21120;-62
2021/12/06 09:59:28;;;;;;;25.03;12.23;;;10.20;95.90;;;10.31;67.31;93895.06;5068967;28;20542;-61
2021/12/06 10:01:57;;;;;;;21.97;12.50;;;10.30;96.10;;;10.44;67.34;93883.28;5068383;28;20477;-61
2021/12/06 10:04:28;;;;;;;22.87;13.67;;;10.40;96.20;;;10.63;66.74;93871.59;5067598;28;20548;-59
2021/12/06 10:06:55;;;;;;;20.53;12.80;;;10.50;95.90;;;10.87;66.27;93857.63;5068735;28;20982;-59
2021/12/06 10:09:23;;;;;;;18.17;11.80;;;10.70;95.70;;;11.14;65.58;93856.44;5068682;28;20527;-60
2021/12/06 10:11:51;;;;;;;18.73;11.73;;;10.90;95.30;;;11.40;64.67;93842.19;5068310;28;20532;-59
2021/12/06 10:14:18;;;;;;;20.63;11.43;;;11.20;94.90;;;11.50;63.85;93852.53;5068537;28;20451;-59
2021/12/06 10:16:46;;;;;;;18.47;10.80;;;11.30;94.10;;;11.50;63.76;93873.59;5068521;28;20506;-58
2021/12/06 10:19:14;;;;;;;14.07;9.60;;;11.30;93.90;;;11.44;63.39;93846.94;5068746;28;20982;-59
2021/12/06 10:21:44;;;;;;;10.27;7.93;;;11.40;93.40;;;11.39;63.36;93862.44;5068074;28;20474;-57
2021/12/06 10:24:12;;;;;;;10.20;7.77;;;11.30;93.20;;;11.32;63.47;93848.31;5059217;28;20487;-60
2021/12/06 10:26:40;;;;;;;12.67;8.27;;;11.30;93.20;;;11.21;63.37;93828.44;5066000;28;20474;-61
2021/12/06 10:29:09;;;;;;;13.90;8.97;;;11.20;93.20;;;11.20;64.09;93831.22;5066803;28;20447;-60
2021/12/06 10:31:40;;;;;;;16.63;10.93;;;11.20;93.60;;;11.22;63.76;93821.38;5066774;28;20967;-61